CheckWX is a tool to help pilots better visualize weather data.  It is not intended as a substitute for an official pre-flight weather briefing.

19:19:01 UTC

KJRB METAR
Downtown Manhattan / Wall St Heliport
New York, New York, USA
Current

23 mins ago

KJRB 271856Z AUTO 26012KT OVC045 06/M01 A2967 RMK AO2 SLP046 T00611006 PWINO
Observed
Jan-27 @ 18:56 UTC
Wind
  • 260° at 12 KTS
Visibility
Cloud Levels
  • Overcast at 4,500' AGL
Temperature
C / 43°F
Dewpoint
-1°C / 30°F
Humidity
61%
Altimeter
29.67" Hg
Pressure
1004.72 hPa
Previous

1 hour ago

KJRB 271756Z AUTO 26010KT OVC047 06/M01 A2969 RMK AO2 SLP052 6//// T00611006 10072 20033 PWINO
Observed
Jan-27 @ 17:56 UTC
Wind
  • 260° at 10 KTS
Visibility
Cloud Levels
  • Overcast at 4,700' AGL
Temperature
C / 43°F
Dewpoint
-1°C / 30°F
Humidity
61%
Altimeter
29.69" Hg
Pressure
1005.42 hPa
Previous

2 hours ago

KJRB 271656Z AUTO 26011G40KT OVC033 06/M01 A2971 RMK AO2 PK WND 27040/1650 SLP059 T00561006 PWINO
Observed
Jan-27 @ 16:56 UTC
Wind
  • 260° at 11 KTS
  • Gusting to 40 KTS
Visibility
Cloud Levels
  • Overcast at 3,300' AGL
Temperature
C / 43°F
Dewpoint
-1°C / 30°F
Humidity
61%
Altimeter
29.71" Hg
Pressure
1006.12 hPa